createdAt,value
2018-12-12T00:00:48.888Z,101719.11
2018-12-12T00:03:21.947Z,101708.27
2018-12-12T00:05:58.458Z,101713.42
2018-12-12T00:08:29.545Z,101711.56
2018-12-12T00:11:02.735Z,101709.99
2018-12-12T00:13:35.467Z,101707.09
2018-12-12T00:16:08.535Z,101705.95
2018-12-12T00:18:42.291Z,101706.91
2018-12-12T00:21:19.858Z,101702.44
2018-12-12T00:23:52.630Z,101701.25
2018-12-12T00:26:25.574Z,101707.42
2018-12-12T00:28:58.695Z,101704.47
2018-12-12T00:31:31.833Z,101716.61
2018-12-12T00:34:04.559Z,101718.47
2018-12-12T00:36:37.850Z,101724.62
2018-12-12T00:39:10.420Z,101716.33
2018-12-12T00:41:47.491Z,101724.79
2018-12-12T00:44:21.080Z,101723.95
2018-12-12T00:46:53.730Z,101723.62
2018-12-12T00:49:26.457Z,101719.29
2018-12-12T00:51:59.716Z,101719.02
2018-12-12T00:54:32.494Z,101720.97
2018-12-12T00:57:05.733Z,101724.19
2018-12-12T00:59:36.618Z,101718.20
2018-12-12T01:02:09.246Z,101717.90
2018-12-12T01:04:46.515Z,101716.66
2018-12-12T01:07:19.943Z,101714.64
2018-12-12T01:09:52.833Z,101712.00
2018-12-12T01:12:25.686Z,101722.50
2018-12-12T01:14:58.579Z,101717.99
2018-12-12T01:17:35.898Z,101721.39
2018-12-12T01:20:08.735Z,101724.31
2018-12-12T01:22:41.892Z,101729.61
2018-12-12T01:25:14.563Z,101733.26
2018-12-12T01:27:48.583Z,101728.92
2018-12-12T01:30:21.752Z,101722.52
2018-12-12T01:32:56.820Z,101730.03
2018-12-12T01:35:31.938Z,101722.30
2018-12-12T01:38:04.663Z,101721.24
2018-12-12T01:40:37.495Z,101727.28
2018-12-12T01:43:14.448Z,101730.20
2018-12-12T01:45:47.259Z,101731.83
2018-12-12T01:48:18.225Z,101738.56
2018-12-12T01:50:51.319Z,101740.45
2018-12-12T01:53:24.467Z,101746.66
2018-12-12T01:56:00.974Z,101740.47
2018-12-12T01:58:31.775Z,101743.39
2018-12-12T02:01:04.912Z,101738.52
2018-12-12T02:03:38.548Z,101743.48
2018-12-12T02:06:11.700Z,101740.30
2018-12-12T02:08:42.651Z,101741.26
2018-12-12T02:11:15.514Z,101745.59
2018-12-12T02:13:48.478Z,101743.97
2018-12-12T02:16:22.479Z,101749.14
2018-12-12T02:18:55.099Z,101756.03
2018-12-12T02:21:27.920Z,101768.05
2018-12-12T02:24:00.815Z,101764.67
2018-12-12T02:26:34.186Z,101768.23
2018-12-12T02:29:06.459Z,101766.99
2018-12-12T02:31:37.434Z,101769.64
2018-12-12T02:34:13.737Z,101770.61
2018-12-12T02:36:46.759Z,101772.30
2018-12-12T02:59:27.060Z,101756.19
2018-12-12T03:01:59.967Z,101766.09
2018-12-12T03:04:36.674Z,101768.26
2018-12-12T03:07:09.562Z,101773.05
2018-12-12T03:09:42.512Z,101768.73
2018-12-12T03:12:15.606Z,101770.06
2018-12-12T03:14:52.525Z,101769.22
2018-12-12T03:17:23.330Z,101771.03
2018-12-12T03:19:56.313Z,101769.70
2018-12-12T03:22:29.098Z,101785.39
2018-12-12T03:25:02.187Z,101791.31
2018-12-12T03:27:35.103Z,101791.95
2018-12-12T03:30:08.269Z,101795.23
2018-12-12T03:32:39.045Z,101798.15
2018-12-12T03:35:11.834Z,101792.97
2018-12-12T03:37:42.892Z,101783.09
2018-12-12T03:40:15.130Z,101792.06
2018-12-12T03:42:48.283Z,101784.12
2018-12-12T03:45:21.234Z,101783.52
2018-12-12T03:47:54.233Z,101784.06
2018-12-12T03:50:27.390Z,101790.27
2018-12-12T03:53:00.367Z,101785.69
2018-12-12T03:55:33.523Z,101780.72
2018-12-12T03:58:06.918Z,101787.08
2018-12-12T04:20:46.446Z,101778.16
2018-12-12T04:23:19.573Z,101785.27
2018-12-12T04:25:56.318Z,101784.12
2018-12-12T04:28:29.210Z,101787.02
2018-12-12T04:30:59.933Z,101791.06
2018-12-12T04:33:33.233Z,101795.87
2018-12-12T04:36:06.091Z,101790.65
2018-12-12T04:38:43.064Z,101798.97
2018-12-12T04:41:16.186Z,101795.59
2018-12-12T04:43:49.144Z,101801.77
2018-12-12T04:46:25.832Z,101802.16
2018-12-12T04:48:59.202Z,101806.47
2018-12-12T04:51:31.752Z,101804.89
2018-12-12T04:54:05.035Z,101803.66
2018-12-12T04:56:41.979Z,101805.20
2018-12-12T04:59:14.622Z,101800.28
2018-12-12T05:01:47.291Z,101799.33
2018-12-12T05:04:24.278Z,101803.07
2018-12-12T05:06:57.399Z,101796.02
2018-12-12T05:09:30.340Z,101794.47
2018-12-12T05:12:03.380Z,101796.72
2018-12-12T05:14:40.563Z,101799.97
2018-12-12T05:17:12.938Z,101808.16
2018-12-12T05:19:45.857Z,101806.92
2018-12-12T05:22:18.763Z,101813.13
2018-12-12T05:24:55.467Z,101817.19
2018-12-12T05:27:28.435Z,101821.55
2018-12-12T05:30:04.867Z,101816.20
2018-12-12T05:32:37.695Z,101825.17
2018-12-12T05:35:14.897Z,101814.30
2018-12-12T05:37:51.825Z,101811.88
2018-12-12T05:40:22.737Z,101815.16
2018-12-12T05:42:55.131Z,101818.34
2018-12-12T05:45:28.344Z,101820.53
2018-12-12T05:48:01.530Z,101815.25
2018-12-12T05:50:34.595Z,101818.70
2018-12-12T05:53:05.815Z,101813.64
2018-12-12T05:55:38.699Z,101819.04
2018-12-12T05:58:09.670Z,101823.20
2018-12-12T06:00:42.671Z,101825.78
2018-12-12T06:03:15.676Z,101828.75
2018-12-12T06:05:48.227Z,101830.73
2018-12-12T06:08:21.405Z,101836.33
2018-12-12T06:10:52.218Z,101835.81
2018-12-12T06:13:25.424Z,101841.39
2018-12-12T06:15:58.396Z,101846.31
2018-12-12T06:18:30.732Z,101846.23
2018-12-12T06:21:03.853Z,101843.55
2018-12-12T06:23:36.651Z,101844.61
2018-12-12T06:33:38.167Z,101840.81
2018-12-12T06:38:42.224Z,101842.69
2018-12-12T06:41:11.371Z,101841.72
2018-12-12T06:43:44.062Z,101841.58
2018-12-12T06:46:30.139Z,101851.21
2018-12-12T06:49:02.876Z,101848.92
2018-12-12T06:51:35.879Z,101850.47
2018-12-12T06:54:06.979Z,101852.48
2018-12-12T06:56:44.002Z,101854.02
2018-12-12T06:59:17.196Z,101849.78
2018-12-12T07:01:55.191Z,101852.14
2018-12-12T07:04:24.251Z,101854.19
2018-12-12T07:06:57.982Z,101855.84
2018-12-12T07:09:40.421Z,101860.52
2018-12-12T07:12:09.562Z,101862.20
2018-12-12T07:14:46.491Z,101864.85
2018-12-12T07:17:24.066Z,101863.89
2018-12-12T07:19:53.344Z,101864.01
2018-12-12T07:22:22.559Z,101865.00
2018-12-12T07:24:51.692Z,101862.83
2018-12-12T07:27:26.064Z,101870.30
2018-12-12T07:29:55.236Z,101870.15
2018-12-12T07:33:07.445Z,101875.18
2018-12-12T07:35:36.659Z,101871.48
2018-12-12T07:38:05.978Z,101873.64
2018-12-12T07:43:07.436Z,101881.88
2018-12-12T07:45:36.552Z,101882.93
2018-12-12T07:48:20.327Z,101891.45
2018-12-12T07:50:52.878Z,101888.18
2018-12-12T07:53:21.894Z,101893.69
2018-12-12T07:55:50.907Z,101887.98
2018-12-12T07:58:20.073Z,101887.70
2018-12-12T08:00:57.663Z,101891.42
2018-12-12T08:03:26.670Z,101895.61
2018-12-12T08:06:04.406Z,101901.93
2018-12-12T08:08:33.436Z,101898.68
2018-12-12T08:11:02.710Z,101897.56
2018-12-12T08:13:31.787Z,101908.72
2018-12-12T08:16:04.248Z,101908.87
2018-12-12T08:18:33.363Z,101911.25
2018-12-12T08:21:02.585Z,101911.95
2018-12-12T08:23:31.947Z,101911.80
2018-12-12T08:26:01.079Z,101915.98
2018-12-12T08:28:30.162Z,101910.56
2018-12-12T08:30:59.258Z,101915.17
2018-12-12T08:33:28.432Z,101911.25
2018-12-12T08:35:57.453Z,101912.88
2018-12-12T08:38:26.598Z,101918.72
2018-12-12T08:40:55.731Z,101910.16
2018-12-12T08:43:24.852Z,101915.16
2018-12-12T08:45:53.910Z,101919.70
2018-12-12T08:48:23.068Z,101912.11
2018-12-12T08:50:52.154Z,101920.60
2018-12-12T08:53:21.270Z,101924.03
2018-12-12T08:55:50.433Z,101923.05
2018-12-12T08:58:19.572Z,101922.39
2018-12-12T09:00:48.787Z,101924.17
2018-12-12T09:03:17.966Z,101927.31
2018-12-12T09:05:47.088Z,101927.08
2018-12-12T09:08:16.162Z,101922.17
2018-12-12T09:10:45.284Z,101922.86
2018-12-12T09:13:15.430Z,101929.50
2018-12-12T09:15:44.719Z,101928.66
2018-12-12T09:18:13.771Z,101928.34
2018-12-12T09:20:42.935Z,101930.91
2018-12-12T09:23:12.063Z,101932.35
2018-12-12T09:25:41.635Z,101933.23
2018-12-12T09:28:10.853Z,101927.52
2018-12-12T09:30:40.035Z,101938.39
2018-12-12T09:33:09.168Z,101938.75
2018-12-12T09:35:38.395Z,101945.44
2018-12-12T09:38:07.634Z,101948.53
2018-12-12T09:40:37.069Z,101953.16
2018-12-12T09:43:06.203Z,101950.89
2018-12-12T09:45:35.358Z,101948.47
2018-12-12T09:48:04.567Z,101944.48
2018-12-12T09:50:33.674Z,101943.19
2018-12-12T09:53:02.863Z,101941.09
2018-12-12T09:55:32.075Z,101940.73
2018-12-12T09:58:01.878Z,101947.25
2018-12-12T10:00:30.965Z,101945.27
2018-12-12T10:03:00.101Z,101939.38
2018-12-12T10:05:29.183Z,101947.77
2018-12-12T10:07:58.322Z,101946.24
2018-12-12T10:10:27.429Z,101946.34
2018-12-12T10:12:56.502Z,101944.63
2018-12-12T10:15:25.763Z,101947.52
2018-12-12T10:17:54.911Z,101944.20
2018-12-12T10:20:24.143Z,101946.45
2018-12-12T10:22:53.214Z,101945.44
2018-12-12T10:25:22.263Z,101950.02
2018-12-12T10:27:51.280Z,101947.12
2018-12-12T10:30:20.373Z,101941.78
2018-12-12T10:32:49.399Z,101939.96
2018-12-12T10:35:18.519Z,101940.80
2018-12-12T10:37:47.576Z,101938.33
2018-12-12T10:40:16.662Z,101943.03
2018-12-12T10:42:45.656Z,101932.44
2018-12-12T10:45:14.735Z,101936.47
2018-12-12T10:47:43.763Z,101928.19
2018-12-12T10:50:12.883Z,101925.84
2018-12-12T10:52:45.145Z,101928.45
2018-12-12T10:55:14.238Z,101930.59
2018-12-12T10:57:43.297Z,101924.38
2018-12-12T11:00:13.054Z,101929.97
2018-12-12T11:02:47.575Z,101928.58
2018-12-12T11:05:17.003Z,101928.73
2018-12-12T11:07:46.096Z,101921.55
2018-12-12T11:10:15.235Z,101921.90
2018-12-12T11:12:51.844Z,101919.53
2018-12-12T11:15:20.963Z,101924.06
2018-12-12T11:17:49.983Z,101920.72
2018-12-12T11:20:19.035Z,101923.22
2018-12-12T11:22:48.135Z,101921.24
2018-12-12T11:25:17.175Z,101921.60
2018-12-12T11:27:46.325Z,101918.69
2018-12-12T11:30:15.387Z,101915.52
2018-12-12T11:32:44.550Z,101917.97
2018-12-12T11:35:13.835Z,101920.66
2018-12-12T11:37:42.940Z,101917.41
2018-12-12T11:40:12.014Z,101917.44
2018-12-12T11:42:42.167Z,101913.45
2018-12-12T11:45:11.235Z,101914.39
2018-12-12T11:47:40.375Z,101916.44
2018-12-12T11:50:09.480Z,101911.68
2018-12-12T11:52:38.615Z,101913.56
2018-12-12T11:55:07.675Z,101912.92
2018-12-12T11:57:36.915Z,101905.44
2018-12-12T12:00:06.375Z,101907.35
2018-12-12T12:02:35.805Z,101911.52
2018-12-12T12:05:05.153Z,101907.13
2018-12-12T12:07:37.370Z,101902.44
2018-12-12T12:10:09.024Z,101888.30
2018-12-12T12:12:45.863Z,101888.13
2018-12-12T12:15:14.963Z,101885.54
2018-12-12T12:17:44.030Z,101884.27
2018-12-12T12:20:13.125Z,101884.63
2018-12-12T12:22:42.331Z,101887.34
2018-12-12T12:25:11.384Z,101880.67
2018-12-12T12:27:40.483Z,101884.66
2018-12-12T12:30:09.872Z,101877.94
2018-12-12T12:33:22.597Z,101882.20
2018-12-12T12:35:51.695Z,101878.63
2018-12-12T12:38:20.805Z,101870.80
2018-12-12T12:40:49.837Z,101875.77
2018-12-12T12:43:19.035Z,101869.38
2018-12-12T12:45:48.226Z,101874.13
2018-12-12T12:48:17.779Z,101867.53
2018-12-12T12:50:46.795Z,101869.14
2018-12-12T12:53:16.019Z,101857.73
2018-12-12T12:55:58.498Z,101867.98
2018-12-12T12:58:40.195Z,101867.20
2018-12-12T13:01:16.907Z,101866.76
2018-12-12T13:03:49.964Z,101864.42
2018-12-12T13:06:19.177Z,101861.44
2018-12-12T13:08:51.936Z,101864.45
2018-12-12T13:11:20.976Z,101858.00
2018-12-12T13:13:50.292Z,101855.69
2018-12-12T13:16:19.303Z,101856.49
2018-12-12T13:18:48.399Z,101857.46
2018-12-12T13:21:17.535Z,101856.69
2018-12-12T13:23:50.095Z,101857.66
2018-12-12T13:26:22.676Z,101852.70
2018-12-12T13:28:55.595Z,101859.19
2018-12-12T13:31:32.258Z,101849.76
2018-12-12T13:34:01.664Z,101845.33
2018-12-12T13:36:30.720Z,101837.45
2018-12-12T13:39:24.002Z,101843.29
2018-12-12T13:41:53.179Z,101839.72
2018-12-12T13:44:22.227Z,101843.73
2018-12-12T13:46:51.227Z,101844.59
2018-12-12T13:49:20.403Z,101842.27
2018-12-12T13:51:58.819Z,101834.38
2018-12-12T13:54:39.067Z,101835.31
2018-12-12T13:57:08.106Z,101828.24
2018-12-12T13:59:48.303Z,101825.75
2018-12-12T14:02:17.331Z,101824.95
2018-12-12T14:04:53.699Z,101817.42
2018-12-12T14:07:22.673Z,101826.25
2018-12-12T14:09:51.654Z,101808.14
2018-12-12T14:12:20.588Z,101804.23
2018-12-12T14:14:50.741Z,101797.62
2018-12-12T14:17:19.899Z,101798.09
2018-12-12T14:19:48.978Z,101797.26
2018-12-12T14:22:18.019Z,101796.81
2018-12-12T14:24:47.179Z,101795.87
2018-12-12T14:27:16.187Z,101801.89
2018-12-12T14:29:45.201Z,101799.39
2018-12-12T14:32:14.751Z,101794.16
2018-12-12T14:34:43.803Z,101803.08
2018-12-12T14:37:12.923Z,101803.01
2018-12-12T14:39:41.891Z,101801.26
2018-12-12T14:42:10.899Z,101808.88
2018-12-12T14:44:39.899Z,101805.64
2018-12-12T14:47:09.203Z,101815.47
2018-12-12T14:49:38.240Z,101812.63
2018-12-12T14:52:07.339Z,101823.52
2018-12-12T14:54:36.398Z,101811.98
2018-12-12T14:57:05.507Z,101820.43
2018-12-12T14:59:34.549Z,101819.84
2018-12-12T15:02:03.647Z,101821.08
2018-12-12T15:04:35.864Z,101818.02
2018-12-12T15:07:04.256Z,101821.64
2018-12-12T15:09:53.883Z,101825.22
2018-12-12T15:12:26.789Z,101827.82
2018-12-12T15:15:03.387Z,101832.69
2018-12-12T15:17:32.509Z,101827.05
2018-12-12T15:20:01.567Z,101826.70
2018-12-12T15:22:30.780Z,101832.23
2018-12-12T15:25:10.051Z,101833.03
2018-12-12T15:27:46.732Z,101835.14
2018-12-12T15:30:20.615Z,101831.44
2018-12-12T15:32:53.651Z,101839.72
2018-12-12T15:35:35.774Z,101837.71
2018-12-12T15:38:08.075Z,101845.17
2018-12-12T15:40:37.175Z,101844.63
2018-12-12T15:43:06.216Z,101842.38
2018-12-12T15:45:42.735Z,101852.45
2018-12-12T15:48:52.161Z,101850.31
2018-12-12T15:51:49.660Z,101857.72
2018-12-12T15:54:46.471Z,101856.75
2018-12-12T15:57:19.615Z,101856.70
2018-12-12T15:59:48.719Z,101864.66
2018-12-12T16:02:21.163Z,101858.04
2018-12-12T16:04:51.307Z,101863.88
2018-12-12T16:07:21.379Z,101854.11
2018-12-12T16:10:03.803Z,101856.91
2018-12-12T16:12:33.232Z,101857.55
2018-12-12T16:15:02.258Z,101854.36
2018-12-12T16:17:31.434Z,101850.64
2018-12-12T16:20:00.778Z,101852.47
2018-12-12T16:22:31.390Z,101853.67
2018-12-12T16:25:00.570Z,101842.17
2018-12-12T16:27:29.733Z,101846.91
2018-12-12T16:29:58.766Z,101849.13
2018-12-12T16:32:27.871Z,101849.98
2018-12-12T16:34:57.011Z,101847.05
2018-12-12T16:37:26.051Z,101847.63
2018-12-12T16:39:55.212Z,101844.19
2018-12-12T16:42:24.317Z,101846.20
2018-12-12T16:44:53.656Z,101846.30
2018-12-12T16:47:23.202Z,101850.00
2018-12-12T16:49:52.654Z,101846.98
2018-12-12T16:52:21.927Z,101843.70
2018-12-12T16:54:55.007Z,101840.72
2018-12-12T16:57:34.639Z,101839.52
2018-12-12T17:00:04.932Z,101838.46
2018-12-12T17:02:34.293Z,101842.11
2018-12-12T17:05:03.433Z,101839.94
2018-12-12T17:07:32.675Z,101833.95
2018-12-12T17:10:01.902Z,101831.09
2018-12-12T17:12:31.108Z,101837.51
2018-12-12T17:15:03.879Z,101832.84
2018-12-12T17:17:33.188Z,101838.74
2018-12-12T17:20:02.735Z,101835.06
2018-12-12T17:22:32.019Z,101832.96
2018-12-12T17:25:01.206Z,101830.31
2018-12-12T17:27:38.430Z,101831.59
2018-12-12T17:30:09.175Z,101832.98
2018-12-12T17:32:38.546Z,101838.38
2018-12-12T17:35:15.441Z,101845.00
2018-12-12T17:38:05.351Z,101844.34
2018-12-12T17:40:42.826Z,101848.70
2018-12-12T17:43:12.323Z,101851.08
2018-12-12T17:45:58.243Z,101847.61
2018-12-12T17:48:34.905Z,101842.14
2018-12-12T17:51:07.566Z,101852.11
2018-12-12T17:53:45.566Z,101850.19
2018-12-12T17:56:22.553Z,101848.73
2018-12-12T17:58:52.079Z,101846.19
2018-12-12T18:01:25.069Z,101848.79
2018-12-12T18:04:02.067Z,101847.56
2018-12-12T18:06:48.071Z,101842.27
2018-12-12T18:09:21.490Z,101848.36
2018-12-12T18:11:58.540Z,101849.80
2018-12-12T18:14:36.130Z,101848.93
2018-12-12T18:17:09.083Z,101846.77
2018-12-12T18:19:42.369Z,101846.28
2018-12-12T18:22:19.498Z,101841.23
2018-12-12T18:24:52.910Z,101841.70
2018-12-12T18:27:40.032Z,101835.09
2018-12-12T18:30:11.533Z,101833.02
2018-12-12T18:32:48.519Z,101841.98
2018-12-12T18:35:29.731Z,101835.72
2018-12-12T18:38:07.011Z,101837.08
2018-12-12T18:40:44.586Z,101844.92
2018-12-12T18:43:22.000Z,101833.90
2018-12-12T18:45:55.528Z,101836.14
2018-12-12T18:48:26.559Z,101829.91
2018-12-12T18:51:03.459Z,101827.88
2018-12-12T18:53:36.407Z,101831.59
2018-12-12T18:56:09.073Z,101832.16
2018-12-12T18:58:46.071Z,101831.16
2018-12-12T19:01:20.538Z,101827.91
2018-12-12T19:04:12.174Z,101825.84
2018-12-12T19:06:44.934Z,101828.83
2018-12-12T19:09:22.658Z,101830.61
2018-12-12T19:11:56.098Z,101834.81
2018-12-12T19:14:28.833Z,101832.14
2018-12-12T19:17:02.448Z,101829.23
2018-12-12T19:19:35.343Z,101828.84
2018-12-12T19:22:12.102Z,101837.30
2018-12-12T19:24:44.993Z,101837.30
2018-12-12T19:27:18.352Z,101841.58
2018-12-12T19:29:55.434Z,101837.47
2018-12-12T19:32:33.331Z,101835.90
2018-12-12T19:35:07.475Z,101837.55
2018-12-12T19:37:40.648Z,101839.88
2018-12-12T19:40:14.093Z,101839.02
2018-12-12T19:42:47.054Z,101850.95
2018-12-12T19:45:23.891Z,101852.98
2018-12-12T19:47:56.631Z,101854.76
2018-12-12T19:50:29.570Z,101846.95
2018-12-12T19:53:06.593Z,101840.25
2018-12-12T19:55:39.466Z,101847.23
2018-12-12T19:58:16.212Z,101835.86
2018-12-12T20:00:49.099Z,101841.67
2018-12-12T20:03:27.617Z,101834.38
2018-12-12T20:06:14.366Z,101835.34
2018-12-12T20:08:45.918Z,101833.85
2018-12-12T20:11:15.470Z,101828.72
2018-12-12T20:13:48.399Z,101831.09
2018-12-12T20:16:48.223Z,101830.45
2018-12-12T20:19:19.831Z,101835.88
2018-12-12T20:22:17.080Z,101834.06
2018-12-12T20:25:27.574Z,101830.12
2018-12-12T20:28:46.416Z,101833.92
2018-12-12T20:34:42.589Z,101834.89
2018-12-12T20:37:12.165Z,101830.36
2018-12-12T20:39:56.639Z,101836.53
2018-12-12T20:42:26.284Z,101838.00
2018-12-12T20:49:01.912Z,101840.77
2018-12-12T20:51:36.412Z,101829.87
2018-12-12T20:54:13.390Z,101828.20
2018-12-12T20:56:46.243Z,101828.20
2018-12-12T20:59:16.503Z,101832.29
2018-12-12T21:01:53.829Z,101830.04
2018-12-12T21:04:26.649Z,101833.25
2018-12-12T21:06:59.635Z,101834.56
2018-12-12T21:09:41.656Z,101837.55
2018-12-12T21:12:19.160Z,101832.67
2018-12-12T21:14:52.016Z,101832.57
2018-12-12T21:17:22.035Z,101828.09
2018-12-12T21:19:59.624Z,101830.77
2018-12-12T21:22:32.407Z,101831.41
2018-12-12T21:25:09.110Z,101827.23
2018-12-12T21:27:46.939Z,101834.61
2018-12-12T21:30:23.743Z,101833.22
2018-12-12T21:32:57.315Z,101833.19
2018-12-12T21:35:35.684Z,101832.70
2018-12-12T21:38:12.933Z,101828.01
2018-12-12T21:40:42.411Z,101824.61
2018-12-12T21:43:19.455Z,101823.11
2018-12-12T21:45:52.538Z,101826.05
2018-12-12T21:48:25.212Z,101820.20
2018-12-12T21:51:02.138Z,101817.45
2018-12-12T21:53:38.975Z,101817.30
2018-12-12T21:56:12.039Z,101819.19
2018-12-12T21:58:53.855Z,101813.91
2018-12-12T22:01:30.882Z,101814.04
2018-12-12T22:04:07.667Z,101810.33
2018-12-12T22:06:40.486Z,101815.47
2018-12-12T22:12:41.507Z,101822.36
2018-12-12T22:15:14.145Z,101821.48
2018-12-12T22:17:45.118Z,101816.30
2018-12-12T22:20:14.442Z,101817.73
2018-12-12T22:22:58.486Z,101819.39
2018-12-12T22:26:06.164Z,101807.02
2018-12-12T22:28:35.325Z,101813.09
2018-12-12T22:31:04.339Z,101803.12
2018-12-12T22:33:33.495Z,101808.88
2018-12-12T22:36:02.575Z,101807.08
2018-12-12T22:38:40.804Z,101796.27
2018-12-12T22:41:10.191Z,101798.52
2018-12-12T22:43:39.633Z,101801.52
2018-12-12T22:46:08.591Z,101799.22
2018-12-12T22:48:45.497Z,101798.98
2018-12-12T22:51:23.347Z,101802.62
2018-12-12T22:56:21.722Z,101802.02
2018-12-12T22:58:50.733Z,101803.59
2018-12-12T23:01:27.271Z,101807.22
2018-12-12T23:03:58.087Z,101802.98
2018-12-12T23:06:29.003Z,101796.13
2018-12-12T23:08:58.060Z,101794.92
2018-12-12T23:11:27.015Z,101789.63
2018-12-12T23:13:56.302Z,101794.55
2018-12-12T23:16:28.702Z,101784.38
2018-12-12T23:19:01.466Z,101779.25
2018-12-12T23:22:11.586Z,101780.59
2018-12-12T23:24:43.777Z,101776.60
2018-12-12T23:27:13.347Z,101774.28
2018-12-12T23:30:25.583Z,101776.72
2018-12-12T23:33:01.951Z,101774.98
2018-12-12T23:35:30.929Z,101771.75
2018-12-12T23:37:59.954Z,101765.56
2018-12-12T23:40:30.722Z,101757.52
2018-12-12T23:43:03.874Z,101760.38
2018-12-12T23:45:34.515Z,101761.70
2018-12-12T23:48:03.535Z,101758.78
2018-12-12T23:50:32.663Z,101756.93
2018-12-12T23:53:05.643Z,101761.34
2018-12-12T23:55:38.410Z,101750.52
2018-12-12T23:58:10.993Z,101750.12
